首页
METAR-TAF:

METAR-TAF

机场 :

奧斯塔夫耶沃國際機場

莫斯科, 俄罗斯

纬度: 55-30-42N, 经度: 037-30-26E, 海拔: 173米

当前天气观测

该预报发布于5小时和49分钟前的17:00 UTC
风速4节,风向
温度 15°C
湿度 100%
气压 1017 hPa
能见度10公里或以上
1500米以下无云,无积雨云

METAR: UUMO 261700Z 09002MPS CAVOK 15/15 Q1017 R26/290050 NOSIG RMK QFE748/0997

时间: 01:49 (22:49 UTC)

预报

该预报发布于5小时和58分钟前的16:51 UTC
预报有效从26日的 18点(UTC)到 27日的 03点(UTC)
风速10节,风向北转西北
能见度10公里或以上
散云层高于4000英尺
短暂存在
从 26日的 18点(UTC)到 27日的 03点(UTC)
能見度: 5000
散云层高于1000英尺
多云层高于2000英尺, 积雨云.
小阵雨

TAF: UUMO 261651Z 2618/2703 34005MPS 9999 SCT040 TEMPO 2618/2703 5000 -SHRA SCT010 BKN020CB

超过4000个机场的气象观测和天气预报(METAR&TAF报告)。

可查询的气象台以黄色和红色小点在地图上表示。

将鼠标移到小点上方,可查看气象台名称。

然后点击查看天气观测和预报。

如需切换地图:点击带黑十字的绿色按钮放大地图;点击带横线的绿色按钮缩小地图;或者点击绿色箭头查看邻近地区的地图。


METAR-TAF: